sensor_id;sensor_type;location;lat;lon;timestamp;temperature;humidity
13470;DHT22;6807;48.682;9.032;2023-06-14T00:01:24;11.40;99.90
13470;DHT22;6807;48.682;9.032;2023-06-14T00:03:53;11.30;99.90
13470;DHT22;6807;48.682;9.032;2023-06-14T00:06:21;11.20;99.90
13470;DHT22;6807;48.682;9.032;2023-06-14T00:08:50;11.20;99.90
13470;DHT22;6807;48.682;9.032;2023-06-14T00:11:17;11.20;99.90
13470;DHT22;6807;48.682;9.032;2023-06-14T00:13:44;11.10;99.90
13470;DHT22;6807;48.682;9.032;2023-06-14T00:16:11;11.00;99.90
13470;DHT22;6807;48.682;9.032;2023-06-14T00:18:38;11.00;99.90
13470;DHT22;6807;48.682;9.032;2023-06-14T00:21:06;11.10;99.90
13470;DHT22;6807;48.682;9.032;2023-06-14T00:23:34;11.00;99.90
13470;DHT22;6807;48.682;9.032;2023-06-14T00:26:01;11.00;99.90
13470;DHT22;6807;48.682;9.032;2023-06-14T00:28:28;11.00;99.90
13470;DHT22;6807;48.682;9.032;2023-06-14T00:30:55;10.90;99.90
13470;DHT22;6807;48.682;9.032;2023-06-14T00:33:22;10.80;99.90
13470;DHT22;6807;48.682;9.032;2023-06-14T00:35:50;10.80;99.90
13470;DHT22;6807;48.682;9.032;2023-06-14T00:38:21;10.70;99.90
13470;DHT22;6807;48.682;9.032;2023-06-14T00:40:48;10.70;99.90
13470;DHT22;6807;48.682;9.032;2023-06-14T00:43:15;10.60;99.90
13470;DHT22;6807;48.682;9.032;2023-06-14T00:45:42;10.60;99.90
13470;DHT22;6807;48.682;9.032;2023-06-14T00:48:10;10.60;99.90
13470;DHT22;6807;48.682;9.032;2023-06-14T00:50:38;10.60;99.90
13470;DHT22;6807;48.682;9.032;2023-06-14T00:53:07;10.50;99.90
13470;DHT22;6807;48.682;9.032;2023-06-14T00:55:36;10.60;99.90
13470;DHT22;6807;48.682;9.032;2023-06-14T00:58:03;10.50;99.90
13470;DHT22;6807;48.682;9.032;2023-06-14T01:00:30;10.50;99.90
13470;DHT22;6807;48.682;9.032;2023-06-14T01:02:57;10.40;99.90
13470;DHT22;6807;48.682;9.032;2023-06-14T01:05:24;10.40;99.90
13470;DHT22;6807;48.682;9.032;2023-06-14T01:08:11;10.30;99.90
13470;DHT22;6807;48.682;9.032;2023-06-14T01:10:52;10.30;99.90
13470;DHT22;6807;48.682;9.032;2023-06-14T01:13:23;10.30;99.90
13470;DHT22;6807;48.682;9.032;2023-06-14T01:15:53;10.20;99.90
13470;DHT22;6807;48.682;9.032;2023-06-14T01:18:21;10.20;99.90
13470;DHT22;6807;48.682;9.032;2023-06-14T01:20:49;10.10;99.90
13470;DHT22;6807;48.682;9.032;2023-06-14T01:23:22;10.10;99.90
13470;DHT22;6807;48.682;9.032;2023-06-14T01:25:51;10.20;99.90
13470;DHT22;6807;48.682;9.032;2023-06-14T01:28:21;10.10;99.90
13470;DHT22;6807;48.682;9.032;2023-06-14T01:30:50;10.00;99.90
13470;DHT22;6807;48.682;9.032;2023-06-14T01:33:21;10.00;99.90
13470;DHT22;6807;48.682;9.032;2023-06-14T01:35:51;10.00;99.90
13470;DHT22;6807;48.682;9.032;2023-06-14T01:38:23;9.90;99.90
13470;DHT22;6807;48.682;9.032;2023-06-14T01:40:52;9.90;99.90
13470;DHT22;6807;48.682;9.032;2023-06-14T01:43:21;9.80;99.90
13470;DHT22;6807;48.682;9.032;2023-06-14T01:45:51;9.90;99.90
13470;DHT22;6807;48.682;9.032;2023-06-14T01:48:18;9.80;99.90
13470;DHT22;6807;48.682;9.032;2023-06-14T01:50:47;9.90;99.90
13470;DHT22;6807;48.682;9.032;2023-06-14T01:53:14;9.70;99.90
13470;DHT22;6807;48.682;9.032;2023-06-14T01:55:43;9.70;99.90
13470;DHT22;6807;48.682;9.032;2023-06-14T01:58:14;9.70;99.90
13470;DHT22;6807;48.682;9.032;2023-06-14T02:00:41;9.80;99.90
13470;DHT22;6807;48.682;9.032;2023-06-14T02:03:11;9.70;99.90
13470;DHT22;6807;48.682;9.032;2023-06-14T02:05:38;9.60;99.90
13470;DHT22;6807;48.682;9.032;2023-06-14T02:08:06;9.60;99.90
13470;DHT22;6807;48.682;9.032;2023-06-14T02:10:33;9.60;99.90
13470;DHT22;6807;48.682;9.032;2023-06-14T02:13:01;9.50;99.90
13470;DHT22;6807;48.682;9.032;2023-06-14T02:15:28;9.50;99.90
13470;DHT22;6807;48.682;9.032;2023-06-14T02:18:00;9.40;99.90
13470;DHT22;6807;48.682;9.032;2023-06-14T02:20:28;9.50;99.90
13470;DHT22;6807;48.682;9.032;2023-06-14T02:22:55;9.40;99.90
13470;DHT22;6807;48.682;9.032;2023-06-14T02:25:22;9.40;99.90
13470;DHT22;6807;48.682;9.032;2023-06-14T02:27:49;9.40;99.90
13470;DHT22;6807;48.682;9.032;2023-06-14T02:30:18;9.30;99.90
13470;DHT22;6807;48.682;9.032;2023-06-14T02:32:45;9.30;99.90
13470;DHT22;6807;48.682;9.032;2023-06-14T02:35:14;9.20;99.90
13470;DHT22;6807;48.682;9.032;2023-06-14T02:37:41;8.00;99.90
13470;DHT22;6807;48.682;9.032;2023-06-14T02:40:09;9.20;99.90
13470;DHT22;6807;48.682;9.032;2023-06-14T02:42:36;9.20;99.90
13470;DHT22;6807;48.682;9.032;2023-06-14T02:45:04;9.20;99.90
13470;DHT22;6807;48.682;9.032;2023-06-14T02:47:33;9.10;99.90
13470;DHT22;6807;48.682;9.032;2023-06-14T02:50:00;9.10;99.90
13470;DHT22;6807;48.682;9.032;2023-06-14T02:52:26;9.10;99.90
13470;DHT22;6807;48.682;9.032;2023-06-14T02:54:54;9.20;99.90
13470;DHT22;6807;48.682;9.032;2023-06-14T02:57:22;9.10;1.00
13470;DHT22;6807;48.682;9.032;2023-06-14T02:59:49;9.10;1.00
13470;DHT22;6807;48.682;9.032;2023-06-14T03:02:17;9.10;1.00
13470;DHT22;6807;48.682;9.032;2023-06-14T03:04:45;9.00;1.00
13470;DHT22;6807;48.682;9.032;2023-06-14T03:07:12;9.00;1.00
13470;DHT22;6807;48.682;9.032;2023-06-14T03:09:45;8.90;1.00
13470;DHT22;6807;48.682;9.032;2023-06-14T03:12:12;8.90;1.00
13470;DHT22;6807;48.682;9.032;2023-06-14T03:14:40;8.90;1.00
13470;DHT22;6807;48.682;9.032;2023-06-14T03:17:07;8.90;1.00
13470;DHT22;6807;48.682;9.032;2023-06-14T03:19:35;9.00;1.00
13470;DHT22;6807;48.682;9.032;2023-06-14T03:22:04;8.90;1.00
13470;DHT22;6807;48.682;9.032;2023-06-14T03:24:33;8.90;1.00
13470;DHT22;6807;48.682;9.032;2023-06-14T03:27:02;8.90;1.00
13470;DHT22;6807;48.682;9.032;2023-06-14T03:29:29;8.80;1.00
13470;DHT22;6807;48.682;9.032;2023-06-14T03:31:58;8.80;1.00
13470;DHT22;6807;48.682;9.032;2023-06-14T03:34:25;8.80;1.00
13470;DHT22;6807;48.682;9.032;2023-06-14T03:36:52;8.90;1.00
13470;DHT22;6807;48.682;9.032;2023-06-14T03:39:21;8.90;1.00
13470;DHT22;6807;48.682;9.032;2023-06-14T03:41:48;8.90;1.00
13470;DHT22;6807;48.682;9.032;2023-06-14T03:44:16;8.80;1.00
13470;DHT22;6807;48.682;9.032;2023-06-14T03:46:44;8.80;1.00
13470;DHT22;6807;48.682;9.032;2023-06-14T03:49:31;8.90;1.00
13470;DHT22;6807;48.682;9.032;2023-06-14T03:51:58;9.00;1.00
13470;DHT22;6807;48.682;9.032;2023-06-14T04:01:11;9.10;1.00
13470;DHT22;6807;48.682;9.032;2023-06-14T04:03:53;8.90;36.00
13470;DHT22;6807;48.682;9.032;2023-06-14T04:09:57;8.70;61.20
13470;DHT22;6807;48.682;9.032;2023-06-14T04:12:23;9.00;99.90
13470;DHT22;6807;48.682;9.032;2023-06-14T04:14:50;9.00;99.90
13470;DHT22;6807;48.682;9.032;2023-06-14T04:17:19;9.10;99.90
13470;DHT22;6807;48.682;9.032;2023-06-14T04:19:46;9.10;99.90
13470;DHT22;6807;48.682;9.032;2023-06-14T04:22:13;9.10;99.90
13470;DHT22;6807;48.682;9.032;2023-06-14T04:24:40;9.20;99.90
13470;DHT22;6807;48.682;9.032;2023-06-14T04:27:08;9.30;99.90
13470;DHT22;6807;48.682;9.032;2023-06-14T04:29:36;9.40;99.90
13470;DHT22;6807;48.682;9.032;2023-06-14T04:32:03;9.40;99.90
13470;DHT22;6807;48.682;9.032;2023-06-14T04:34:33;9.50;99.90
13470;DHT22;6807;48.682;9.032;2023-06-14T04:37:00;9.50;99.90
13470;DHT22;6807;48.682;9.032;2023-06-14T04:39:27;9.60;99.90
13470;DHT22;6807;48.682;9.032;2023-06-14T04:41:54;9.70;99.90
13470;DHT22;6807;48.682;9.032;2023-06-14T04:44:23;9.80;99.90
13470;DHT22;6807;48.682;9.032;2023-06-14T04:46:56;9.90;99.90
13470;DHT22;6807;48.682;9.032;2023-06-14T04:49:24;10.10;99.90
13470;DHT22;6807;48.682;9.032;2023-06-14T04:51:56;10.20;99.90
13470;DHT22;6807;48.682;9.032;2023-06-14T04:54:24;10.20;99.90
13470;DHT22;6807;48.682;9.032;2023-06-14T04:56:53;10.30;99.90
13470;DHT22;6807;48.682;9.032;2023-06-14T04:59:20;10.40;81.20
13470;DHT22;6807;48.682;9.032;2023-06-14T05:01:59;10.50;73.30
13470;DHT22;6807;48.682;9.032;2023-06-14T05:04:26;10.60;65.20
13470;DHT22;6807;48.682;9.032;2023-06-14T05:06:57;10.70;99.90
13470;DHT22;6807;48.682;9.032;2023-06-14T05:09:24;10.90;99.90
13470;DHT22;6807;48.682;9.032;2023-06-14T05:11:51;11.00;99.90
13470;DHT22;6807;48.682;9.032;2023-06-14T05:14:24;11.20;51.20
13470;DHT22;6807;48.682;9.032;2023-06-14T05:16:51;11.30;78.00
13470;DHT22;6807;48.682;9.032;2023-06-14T05:19:19;11.40;46.10
13470;DHT22;6807;48.682;9.032;2023-06-14T05:21:46;11.50;13.50
13470;DHT22;6807;48.682;9.032;2023-06-14T05:24:15;11.70;1.00
13470;DHT22;6807;48.682;9.032;2023-06-14T05:26:42;11.80;13.50
13470;DHT22;6807;48.682;9.032;2023-06-14T05:29:09;12.00;1.00
13470;DHT22;6807;48.682;9.032;2023-06-14T05:32:19;12.10;1.00
13470;DHT22;6807;48.682;9.032;2023-06-14T05:34:49;12.80;1.00
13470;DHT22;6807;48.682;9.032;2023-06-14T05:37:33;12.70;1.00
13470;DHT22;6807;48.682;9.032;2023-06-14T05:40:05;13.00;1.00
13470;DHT22;6807;48.682;9.032;2023-06-14T05:42:32;13.50;1.00
13470;DHT22;6807;48.682;9.032;2023-06-14T05:44:59;13.80;1.00
13470;DHT22;6807;48.682;9.032;2023-06-14T05:47:26;14.10;1.00
13470;DHT22;6807;48.682;9.032;2023-06-14T05:49:53;14.50;1.00
13470;DHT22;6807;48.682;9.032;2023-06-14T05:52:21;14.80;99.90
13470;DHT22;6807;48.682;9.032;2023-06-14T05:54:48;15.10;99.90
13470;DHT22;6807;48.682;9.032;2023-06-14T05:57:16;15.40;99.90
13470;DHT22;6807;48.682;9.032;2023-06-14T05:59:43;15.80;99.90
13470;DHT22;6807;48.682;9.032;2023-06-14T06:02:10;16.10;99.90
13470;DHT22;6807;48.682;9.032;2023-06-14T06:04:37;16.30;99.90
13470;DHT22;6807;48.682;9.032;2023-06-14T06:07:04;16.60;99.90
13470;DHT22;6807;48.682;9.032;2023-06-14T06:09:32;16.90;99.90
13470;DHT22;6807;48.682;9.032;2023-06-14T06:11:59;17.20;99.90
13470;DHT22;6807;48.682;9.032;2023-06-14T06:14:28;17.40;99.90
13470;DHT22;6807;48.682;9.032;2023-06-14T06:16:55;17.60;99.90
13470;DHT22;6807;48.682;9.032;2023-06-14T06:19:21;17.80;99.90
13470;DHT22;6807;48.682;9.032;2023-06-14T06:21:48;18.00;99.90
13470;DHT22;6807;48.682;9.032;2023-06-14T06:24:16;18.20;99.90
13470;DHT22;6807;48.682;9.032;2023-06-14T06:26:43;18.50;99.90
13470;DHT22;6807;48.682;9.032;2023-06-14T06:29:10;18.70;99.90
13470;DHT22;6807;48.682;9.032;2023-06-14T06:31:39;18.90;99.90
13470;DHT22;6807;48.682;9.032;2023-06-14T06:34:06;19.10;99.90
13470;DHT22;6807;48.682;9.032;2023-06-14T06:36:33;19.30;99.90
13470;DHT22;6807;48.682;9.032;2023-06-14T06:39:00;19.60;99.90
13470;DHT22;6807;48.682;9.032;2023-06-14T06:41:31;19.80;99.90
13470;DHT22;6807;48.682;9.032;2023-06-14T06:44:00;20.10;99.90
13470;DHT22;6807;48.682;9.032;2023-06-14T06:46:27;20.30;99.90
13470;DHT22;6807;48.682;9.032;2023-06-14T06:48:55;20.30;99.90
13470;DHT22;6807;48.682;9.032;2023-06-14T06:51:22;20.70;99.90
13470;DHT22;6807;48.682;9.032;2023-06-14T06:53:53;20.80;99.90
13470;DHT22;6807;48.682;9.032;2023-06-14T06:56:20;21.20;99.90
13470;DHT22;6807;48.682;9.032;2023-06-14T06:58:48;21.30;99.90
13470;DHT22;6807;48.682;9.032;2023-06-14T07:01:15;21.50;99.90
13470;DHT22;6807;48.682;9.032;2023-06-14T07:03:42;21.90;99.90
13470;DHT22;6807;48.682;9.032;2023-06-14T07:06:11;22.00;99.90
13470;DHT22;6807;48.682;9.032;2023-06-14T07:08:38;21.80;99.90
13470;DHT22;6807;48.682;9.032;2023-06-14T07:11:05;22.10;99.90
13470;DHT22;6807;48.682;9.032;2023-06-14T07:13:32;22.20;99.90
13470;DHT22;6807;48.682;9.032;2023-06-14T07:16:00;22.30;99.90
13470;DHT22;6807;48.682;9.032;2023-06-14T07:18:27;22.70;99.90
13470;DHT22;6807;48.682;9.032;2023-06-14T07:20:54;23.10;99.90
13470;DHT22;6807;48.682;9.032;2023-06-14T07:23:23;23.20;99.90
13470;DHT22;6807;48.682;9.032;2023-06-14T07:25:50;23.50;99.90
13470;DHT22;6807;48.682;9.032;2023-06-14T07:28:17;23.70;99.90
13470;DHT22;6807;48.682;9.032;2023-06-14T07:30:44;23.70;99.90
13470;DHT22;6807;48.682;9.032;2023-06-14T07:33:11;23.70;99.90
13470;DHT22;6807;48.682;9.032;2023-06-14T07:35:39;23.90;99.90
13470;DHT22;6807;48.682;9.032;2023-06-14T07:38:06;23.60;99.90
13470;DHT22;6807;48.682;9.032;2023-06-14T07:40:34;23.70;99.90
13470;DHT22;6807;48.682;9.032;2023-06-14T07:43:01;23.90;99.90
13470;DHT22;6807;48.682;9.032;2023-06-14T07:45:28;24.00;99.90
13470;DHT22;6807;48.682;9.032;2023-06-14T07:47:55;24.40;99.90
13470;DHT22;6807;48.682;9.032;2023-06-14T07:50:23;24.30;99.90
13470;DHT22;6807;48.682;9.032;2023-06-14T07:52:50;24.50;99.90
13470;DHT22;6807;48.682;9.032;2023-06-14T07:55:17;24.70;99.90
13470;DHT22;6807;48.682;9.032;2023-06-14T07:57:46;24.90;99.90
13470;DHT22;6807;48.682;9.032;2023-06-14T08:00:13;24.50;99.90
13470;DHT22;6807;48.682;9.032;2023-06-14T08:02:41;24.20;99.90
13470;DHT22;6807;48.682;9.032;2023-06-14T08:05:09;24.10;99.90
13470;DHT22;6807;48.682;9.032;2023-06-14T08:07:36;24.70;99.90
13470;DHT22;6807;48.682;9.032;2023-06-14T08:10:04;24.90;99.90
13470;DHT22;6807;48.682;9.032;2023-06-14T08:12:32;25.40;99.90
13470;DHT22;6807;48.682;9.032;2023-06-14T08:15:00;25.80;99.90
13470;DHT22;6807;48.682;9.032;2023-06-14T08:17:27;26.10;99.90
13470;DHT22;6807;48.682;9.032;2023-06-14T08:19:54;26.10;99.90
13470;DHT22;6807;48.682;9.032;2023-06-14T08:22:22;25.90;99.90
13470;DHT22;6807;48.682;9.032;2023-06-14T08:24:51;25.80;99.90
13470;DHT22;6807;48.682;9.032;2023-06-14T08:27:19;25.90;99.90
13470;DHT22;6807;48.682;9.032;2023-06-14T08:29:46;26.10;99.90
13470;DHT22;6807;48.682;9.032;2023-06-14T08:32:15;25.80;99.90
13470;DHT22;6807;48.682;9.032;2023-06-14T08:34:42;25.10;99.90
13470;DHT22;6807;48.682;9.032;2023-06-14T08:37:09;25.70;99.90
13470;DHT22;6807;48.682;9.032;2023-06-14T08:39:36;26.60;99.90
13470;DHT22;6807;48.682;9.032;2023-06-14T08:42:04;26.80;99.90
13470;DHT22;6807;48.682;9.032;2023-06-14T08:44:32;26.40;99.90
13470;DHT22;6807;48.682;9.032;2023-06-14T08:47:00;26.90;99.90
13470;DHT22;6807;48.682;9.032;2023-06-14T08:49:31;27.40;99.90
13470;DHT22;6807;48.682;9.032;2023-06-14T08:52:00;27.80;99.90
13470;DHT22;6807;48.682;9.032;2023-06-14T08:54:28;28.10;99.90
13470;DHT22;6807;48.682;9.032;2023-06-14T08:56:56;27.90;99.90
13470;DHT22;6807;48.682;9.032;2023-06-14T08:59:24;28.20;99.90
13470;DHT22;6807;48.682;9.032;2023-06-14T09:01:52;28.40;99.90
13470;DHT22;6807;48.682;9.032;2023-06-14T09:04:20;28.50;1.00
13470;DHT22;6807;48.682;9.032;2023-06-14T09:06:49;27.50;1.00
13470;DHT22;6807;48.682;9.032;2023-06-14T09:09:19;27.40;1.00
13470;DHT22;6807;48.682;9.032;2023-06-14T09:11:46;28.20;1.00
13470;DHT22;6807;48.682;9.032;2023-06-14T09:14:14;28.40;1.00
13470;DHT22;6807;48.682;9.032;2023-06-14T09:16:40;28.90;1.00
13470;DHT22;6807;48.682;9.032;2023-06-14T09:19:08;28.00;1.00
13470;DHT22;6807;48.682;9.032;2023-06-14T09:21:35;26.90;1.00
13470;DHT22;6807;48.682;9.032;2023-06-14T09:24:05;26.80;1.00
13470;DHT22;6807;48.682;9.032;2023-06-14T09:26:32;27.10;1.00
13470;DHT22;6807;48.682;9.032;2023-06-14T09:28:59;28.10;1.00
13470;DHT22;6807;48.682;9.032;2023-06-14T09:31:26;28.50;1.00
13470;DHT22;6807;48.682;9.032;2023-06-14T09:33:57;28.70;1.00
13470;DHT22;6807;48.682;9.032;2023-06-14T09:36:25;28.20;1.00
13470;DHT22;6807;48.682;9.032;2023-06-14T09:38:53;27.80;1.00
13470;DHT22;6807;48.682;9.032;2023-06-14T09:41:30;27.60;1.00
13470;DHT22;6807;48.682;9.032;2023-06-14T09:43:58;27.70;1.00
13470;DHT22;6807;48.682;9.032;2023-06-14T09:46:28;28.00;1.00
13470;DHT22;6807;48.682;9.032;2023-06-14T09:48:56;28.80;1.00
13470;DHT22;6807;48.682;9.032;2023-06-14T09:51:23;28.90;1.00
13470;DHT22;6807;48.682;9.032;2023-06-14T09:53:52;27.10;1.00
13470;DHT22;6807;48.682;9.032;2023-06-14T09:56:26;26.80;1.00
13470;DHT22;6807;48.682;9.032;2023-06-14T09:58:55;27.40;1.00
13470;DHT22;6807;48.682;9.032;2023-06-14T10:01:24;28.10;1.00
13470;DHT22;6807;48.682;9.032;2023-06-14T10:03:55;28.30;1.00
13470;DHT22;6807;48.682;9.032;2023-06-14T10:06:26;28.40;1.00
13470;DHT22;6807;48.682;9.032;2023-06-14T10:08:57;28.90;1.00
13470;DHT22;6807;48.682;9.032;2023-06-14T10:11:27;29.40;1.00
13470;DHT22;6807;48.682;9.032;2023-06-14T10:13:55;30.40;1.00
13470;DHT22;6807;48.682;9.032;2023-06-14T10:16:27;30.70;1.00
13470;DHT22;6807;48.682;9.032;2023-06-14T10:19:03;31.10;1.00
13470;DHT22;6807;48.682;9.032;2023-06-14T10:21:37;31.50;1.00
13470;DHT22;6807;48.682;9.032;2023-06-14T10:24:09;30.90;1.00
13470;DHT22;6807;48.682;9.032;2023-06-14T10:26:50;30.90;1.00
13470;DHT22;6807;48.682;9.032;2023-06-14T10:29:17;30.40;1.00
13470;DHT22;6807;48.682;9.032;2023-06-14T10:31:47;29.90;1.00
13470;DHT22;6807;48.682;9.032;2023-06-14T10:34:22;29.90;1.00
13470;DHT22;6807;48.682;9.032;2023-06-14T10:37:01;29.40;1.00
13470;DHT22;6807;48.682;9.032;2023-06-14T10:39:29;30.00;1.00
13470;DHT22;6807;48.682;9.032;2023-06-14T10:42:01;29.90;1.00
13470;DHT22;6807;48.682;9.032;2023-06-14T10:44:49;28.00;1.00
13470;DHT22;6807;48.682;9.032;2023-06-14T10:47:27;27.00;1.00
13470;DHT22;6807;48.682;9.032;2023-06-14T10:49:56;28.10;1.00
13470;DHT22;6807;48.682;9.032;2023-06-14T10:52:26;29.30;1.00
13470;DHT22;6807;48.682;9.032;2023-06-14T10:55:08;29.90;1.00
13470;DHT22;6807;48.682;9.032;2023-06-14T10:57:42;30.70;1.00
13470;DHT22;6807;48.682;9.032;2023-06-14T11:00:12;29.60;1.00
13470;DHT22;6807;48.682;9.032;2023-06-14T11:05:59;31.30;1.00
13470;DHT22;6807;48.682;9.032;2023-06-14T11:11:38;32.60;1.00
13470;DHT22;6807;48.682;9.032;2023-06-14T11:14:10;32.50;1.00
13470;DHT22;6807;48.682;9.032;2023-06-14T11:16:37;32.40;1.00
13470;DHT22;6807;48.682;9.032;2023-06-14T11:19:04;32.80;1.00
13470;DHT22;6807;48.682;9.032;2023-06-14T11:21:32;33.20;1.00
13470;DHT22;6807;48.682;9.032;2023-06-14T11:24:03;33.10;1.00
13470;DHT22;6807;48.682;9.032;2023-06-14T11:26:31;32.40;1.00
13470;DHT22;6807;48.682;9.032;2023-06-14T11:29:00;31.30;1.00
13470;DHT22;6807;48.682;9.032;2023-06-14T11:31:29;32.10;1.00
13470;DHT22;6807;48.682;9.032;2023-06-14T11:33:57;32.40;1.00
13470;DHT22;6807;48.682;9.032;2023-06-14T11:36:27;32.70;1.00
13470;DHT22;6807;48.682;9.032;2023-06-14T11:38:58;30.80;1.00
13470;DHT22;6807;48.682;9.032;2023-06-14T11:41:25;29.80;1.00
13470;DHT22;6807;48.682;9.032;2023-06-14T11:43:53;28.70;1.00
13470;DHT22;6807;48.682;9.032;2023-06-14T11:46:20;29.90;1.00
13470;DHT22;6807;48.682;9.032;2023-06-14T11:48:52;29.10;1.00
13470;DHT22;6807;48.682;9.032;2023-06-14T11:51:19;27.30;1.00
13470;DHT22;6807;48.682;9.032;2023-06-14T11:53:47;26.40;1.00
13470;DHT22;6807;48.682;9.032;2023-06-14T11:56:14;26.80;1.00
13470;DHT22;6807;48.682;9.032;2023-06-14T11:58:42;28.40;1.00
13470;DHT22;6807;48.682;9.032;2023-06-14T12:01:14;28.80;1.00
13470;DHT22;6807;48.682;9.032;2023-06-14T12:03:47;27.20;1.00
13470;DHT22;6807;48.682;9.032;2023-06-14T12:06:17;26.00;1.00
13470;DHT22;6807;48.682;9.032;2023-06-14T12:08:55;25.60;1.00
13470;DHT22;6807;48.682;9.032;2023-06-14T12:11:22;26.70;1.00
13470;DHT22;6807;48.682;9.032;2023-06-14T12:13:49;27.20;1.00
13470;DHT22;6807;48.682;9.032;2023-06-14T12:16:16;27.00;1.00
13470;DHT22;6807;48.682;9.032;2023-06-14T12:18:43;28.10;1.00
13470;DHT22;6807;48.682;9.032;2023-06-14T12:21:11;29.10;1.00
13470;DHT22;6807;48.682;9.032;2023-06-14T12:23:46;29.90;1.00
13470;DHT22;6807;48.682;9.032;2023-06-14T12:26:14;30.50;1.00
13470;DHT22;6807;48.682;9.032;2023-06-14T12:28:42;29.70;1.00
13470;DHT22;6807;48.682;9.032;2023-06-14T12:31:12;28.40;1.00
13470;DHT22;6807;48.682;9.032;2023-06-14T12:33:39;28.60;1.00
13470;DHT22;6807;48.682;9.032;2023-06-14T12:36:08;28.50;1.00
13470;DHT22;6807;48.682;9.032;2023-06-14T12:38:35;29.30;1.00
13470;DHT22;6807;48.682;9.032;2023-06-14T12:41:04;30.30;1.00
13470;DHT22;6807;48.682;9.032;2023-06-14T12:43:31;30.70;1.00
13470;DHT22;6807;48.682;9.032;2023-06-14T12:45:58;31.40;1.00
13470;DHT22;6807;48.682;9.032;2023-06-14T12:48:26;31.50;1.00
13470;DHT22;6807;48.682;9.032;2023-06-14T12:50:55;32.10;1.00
13470;DHT22;6807;48.682;9.032;2023-06-14T12:53:22;32.80;1.00
13470;DHT22;6807;48.682;9.032;2023-06-14T12:55:49;32.60;1.00
13470;DHT22;6807;48.682;9.032;2023-06-14T12:58:18;33.00;1.00
13470;DHT22;6807;48.682;9.032;2023-06-14T13:00:46;32.10;1.00
13470;DHT22;6807;48.682;9.032;2023-06-14T13:03:13;32.50;1.00
13470;DHT22;6807;48.682;9.032;2023-06-14T13:05:40;32.60;1.00
13470;DHT22;6807;48.682;9.032;2023-06-14T13:08:08;32.20;1.00
13470;DHT22;6807;48.682;9.032;2023-06-14T13:10:36;32.00;1.00
13470;DHT22;6807;48.682;9.032;2023-06-14T13:13:03;32.00;1.00
13470;DHT22;6807;48.682;9.032;2023-06-14T13:15:31;31.90;1.00
13470;DHT22;6807;48.682;9.032;2023-06-14T13:17:58;32.10;1.00
13470;DHT22;6807;48.682;9.032;2023-06-14T13:20:25;32.40;1.00
13470;DHT22;6807;48.682;9.032;2023-06-14T13:22:52;32.50;1.00
13470;DHT22;6807;48.682;9.032;2023-06-14T13:25:19;32.80;1.00
13470;DHT22;6807;48.682;9.032;2023-06-14T13:27:48;32.90;1.00
13470;DHT22;6807;48.682;9.032;2023-06-14T13:30:15;32.40;1.00
13470;DHT22;6807;48.682;9.032;2023-06-14T13:32:43;31.20;1.00
13470;DHT22;6807;48.682;9.032;2023-06-14T13:35:10;29.50;1.00
13470;DHT22;6807;48.682;9.032;2023-06-14T13:37:37;29.50;1.00
13470;DHT22;6807;48.682;9.032;2023-06-14T13:40:05;30.10;1.00
13470;DHT22;6807;48.682;9.032;2023-06-14T13:42:32;29.90;1.00
13470;DHT22;6807;48.682;9.032;2023-06-14T13:44:59;30.00;1.00
13470;DHT22;6807;48.682;9.032;2023-06-14T13:47:26;29.90;1.00
13470;DHT22;6807;48.682;9.032;2023-06-14T13:49:55;29.80;1.00
13470;DHT22;6807;48.682;9.032;2023-06-14T13:52:22;29.90;1.00
13470;DHT22;6807;48.682;9.032;2023-06-14T13:54:49;30.30;1.00
13470;DHT22;6807;48.682;9.032;2023-06-14T13:57:17;30.10;1.00
13470;DHT22;6807;48.682;9.032;2023-06-14T13:59:44;30.50;1.00
13470;DHT22;6807;48.682;9.032;2023-06-14T14:02:11;31.20;1.00
13470;DHT22;6807;48.682;9.032;2023-06-14T14:04:39;30.50;1.00
13470;DHT22;6807;48.682;9.032;2023-06-14T14:07:08;28.70;1.00
13470;DHT22;6807;48.682;9.032;2023-06-14T14:09:35;28.40;1.00
13470;DHT22;6807;48.682;9.032;2023-06-14T14:12:03;27.70;1.00
13470;DHT22;6807;48.682;9.032;2023-06-14T14:14:32;27.20;1.00
13470;DHT22;6807;48.682;9.032;2023-06-14T14:16:59;28.60;1.00
13470;DHT22;6807;48.682;9.032;2023-06-14T14:19:26;29.30;1.00
13470;DHT22;6807;48.682;9.032;2023-06-14T14:21:53;29.50;1.00
13470;DHT22;6807;48.682;9.032;2023-06-14T14:24:21;29.50;1.00
13470;DHT22;6807;48.682;9.032;2023-06-14T14:26:48;28.40;1.00
13470;DHT22;6807;48.682;9.032;2023-06-14T14:29:19;27.20;1.00
13470;DHT22;6807;48.682;9.032;2023-06-14T14:31:46;26.20;1.00
13470;DHT22;6807;48.682;9.032;2023-06-14T14:34:13;26.90;1.00
13470;DHT22;6807;48.682;9.032;2023-06-14T14:36:40;27.90;1.00
13470;DHT22;6807;48.682;9.032;2023-06-14T14:39:08;28.20;1.00
13470;DHT22;6807;48.682;9.032;2023-06-14T14:41:36;29.20;1.00
13470;DHT22;6807;48.682;9.032;2023-06-14T14:44:04;29.10;1.00
13470;DHT22;6807;48.682;9.032;2023-06-14T14:46:31;28.00;1.00
13470;DHT22;6807;48.682;9.032;2023-06-14T14:48:59;26.70;1.00
13470;DHT22;6807;48.682;9.032;2023-06-14T14:51:26;25.70;1.00
13470;DHT22;6807;48.682;9.032;2023-06-14T14:53:53;26.30;1.00
13470;DHT22;6807;48.682;9.032;2023-06-14T14:56:21;25.80;1.00
13470;DHT22;6807;48.682;9.032;2023-06-14T14:58:50;26.50;1.00
13470;DHT22;6807;48.682;9.032;2023-06-14T15:01:17;27.00;1.00
13470;DHT22;6807;48.682;9.032;2023-06-14T15:03:44;27.40;1.00
13470;DHT22;6807;48.682;9.032;2023-06-14T15:06:11;27.80;1.00
13470;DHT22;6807;48.682;9.032;2023-06-14T15:08:38;27.70;1.00
13470;DHT22;6807;48.682;9.032;2023-06-14T15:11:05;28.10;1.00
13470;DHT22;6807;48.682;9.032;2023-06-14T15:13:32;28.10;1.00
13470;DHT22;6807;48.682;9.032;2023-06-14T15:16:00;28.10;1.00
13470;DHT22;6807;48.682;9.032;2023-06-14T15:18:27;27.00;1.00
13470;DHT22;6807;48.682;9.032;2023-06-14T15:20:54;26.80;1.00
13470;DHT22;6807;48.682;9.032;2023-06-14T15:23:22;26.10;1.00
13470;DHT22;6807;48.682;9.032;2023-06-14T15:25:49;25.50;1.00
13470;DHT22;6807;48.682;9.032;2023-06-14T15:28:17;25.80;1.00
13470;DHT22;6807;48.682;9.032;2023-06-14T15:30:44;25.90;1.00
13470;DHT22;6807;48.682;9.032;2023-06-14T15:33:13;26.00;1.00
13470;DHT22;6807;48.682;9.032;2023-06-14T15:35:40;26.40;1.00
13470;DHT22;6807;48.682;9.032;2023-06-14T15:38:07;26.50;1.00
13470;DHT22;6807;48.682;9.032;2023-06-14T15:40:34;26.60;1.00
13470;DHT22;6807;48.682;9.032;2023-06-14T15:43:02;26.70;1.00
13470;DHT22;6807;48.682;9.032;2023-06-14T15:45:30;27.00;1.00
13470;DHT22;6807;48.682;9.032;2023-06-14T15:47:57;27.20;1.00
13470;DHT22;6807;48.682;9.032;2023-06-14T15:50:26;27.10;1.00
13470;DHT22;6807;48.682;9.032;2023-06-14T15:52:53;26.90;1.00
13470;DHT22;6807;48.682;9.032;2023-06-14T15:55:20;26.10;1.00
13470;DHT22;6807;48.682;9.032;2023-06-14T15:57:47;25.80;1.00
13470;DHT22;6807;48.682;9.032;2023-06-14T16:00:16;25.80;1.00
13470;DHT22;6807;48.682;9.032;2023-06-14T16:02:43;25.80;1.00
13470;DHT22;6807;48.682;9.032;2023-06-14T16:05:10;25.90;1.00
13470;DHT22;6807;48.682;9.032;2023-06-14T16:07:39;26.00;1.00
13470;DHT22;6807;48.682;9.032;2023-06-14T16:10:08;26.10;1.00
13470;DHT22;6807;48.682;9.032;2023-06-14T16:12:35;26.00;1.00
13470;DHT22;6807;48.682;9.032;2023-06-14T16:15:02;25.30;1.00
13470;DHT22;6807;48.682;9.032;2023-06-14T16:17:29;24.80;1.00
13470;DHT22;6807;48.682;9.032;2023-06-14T16:19:56;24.50;1.00
13470;DHT22;6807;48.682;9.032;2023-06-14T16:22:23;24.60;1.00